createdAt,value
2017-09-22T00:00:28.599Z,95.46
2017-09-22T00:01:28.581Z,95.56
2017-09-22T00:02:28.556Z,96.13
2017-09-22T00:03:28.531Z,96.13
2017-09-22T00:04:28.508Z,95.65
2017-09-22T00:05:28.487Z,96.13
2017-09-22T00:06:28.467Z,96.32
2017-09-22T00:07:28.441Z,96.32
2017-09-22T00:08:28.423Z,96.03
2017-09-22T00:09:28.088Z,96.22
2017-09-22T00:10:28.070Z,96.13
2017-09-22T00:11:28.353Z,95.94
2017-09-22T00:12:28.325Z,96.03
2017-09-22T00:13:28.304Z,96.13
2017-09-22T00:14:28.033Z,95.84
2017-09-22T00:15:28.272Z,95.75
2017-09-22T00:16:28.241Z,96.03
2017-09-22T00:17:28.214Z,96.13
2017-09-22T00:18:28.200Z,95.84
2017-09-22T00:19:28.174Z,96.13
2017-09-22T00:20:28.153Z,95.84
2017-09-22T00:21:28.127Z,96.13
2017-09-22T00:22:28.106Z,95.75
2017-09-22T00:23:28.081Z,95.56
2017-09-22T00:24:28.060Z,95.65
2017-09-22T00:25:28.038Z,95.7
2017-09-22T00:26:28.021Z,95.56
2017-09-22T00:27:27.991Z,96.03
2017-09-22T00:28:27.967Z,95.98
2017-09-22T00:29:27.954Z,96.17
2017-09-22T00:30:27.930Z,96.08
2017-09-22T00:31:27.901Z,96.17
2017-09-22T00:32:27.888Z,96.27
2017-09-22T00:33:27.859Z,96.08
2017-09-22T00:34:27.835Z,95.89
2017-09-22T00:35:27.815Z,95.98
2017-09-22T00:36:27.787Z,95.89
2017-09-22T00:37:27.770Z,95.98
2017-09-22T00:38:27.753Z,96.08
2017-09-22T00:39:27.726Z,96.27
2017-09-22T00:40:27.700Z,95.89
2017-09-22T00:41:27.676Z,96.27
2017-09-22T00:42:27.654Z,95.98
2017-09-22T00:43:27.632Z,95.98
2017-09-22T00:44:27.613Z,96.56
2017-09-22T00:45:27.588Z,96.46
2017-09-22T00:46:27.568Z,96.46
2017-09-22T00:47:27.546Z,96.46
2017-09-22T00:48:27.527Z,96.17
2017-09-22T00:49:27.497Z,96.36
2017-09-22T00:50:27.479Z,96.27
2017-09-22T00:51:27.449Z,96.46
2017-09-22T00:52:27.433Z,96.36
2017-09-22T00:53:27.406Z,96.27
2017-09-22T00:54:27.434Z,95.89
2017-09-22T00:55:27.361Z,96.65
2017-09-22T00:56:27.336Z,96.46
2017-09-22T00:57:27.319Z,96.65
2017-09-22T00:58:27.300Z,96.65
2017-09-22T00:59:27.277Z,96.84
2017-09-22T01:00:26.948Z,96.65
2017-09-22T01:01:26.920Z,96.65
2017-09-22T01:02:27.205Z,96.46
2017-09-22T01:03:27.179Z,96.56
2017-09-22T01:04:27.158Z,96.46
2017-09-22T01:05:27.135Z,96.46
2017-09-22T01:06:27.111Z,96.46
2017-09-22T01:07:27.089Z,96.56
2017-09-22T01:08:27.067Z,96.56
2017-09-22T01:09:27.042Z,96.56
2017-09-22T01:10:27.019Z,96.75
2017-09-22T01:11:27.000Z,96.46
2017-09-22T01:12:26.973Z,96.51
2017-09-22T01:13:26.951Z,96.75
2017-09-22T01:14:26.934Z,96.46
2017-09-22T01:15:26.911Z,96.56
2017-09-22T01:16:26.884Z,96.51
2017-09-22T01:17:26.861Z,96.7
2017-09-22T01:18:26.835Z,97.03
2017-09-22T01:19:26.816Z,96.8
2017-09-22T01:20:26.794Z,96.98
2017-09-22T01:21:26.777Z,96.98
2017-09-22T01:22:26.759Z,97.08
2017-09-22T01:23:26.725Z,96.6
2017-09-22T01:24:26.752Z,96.7
2017-09-22T01:25:26.676Z,96.8
2017-09-22T01:26:26.655Z,96.8
2017-09-22T01:27:26.632Z,96.8
2017-09-22T01:28:26.613Z,96.51
2017-09-22T01:29:26.592Z,96.7
2017-09-22T01:30:26.565Z,96.6
2017-09-22T01:31:26.542Z,96.7
2017-09-22T01:32:26.522Z,96.98
2017-09-22T01:33:26.494Z,96.8
2017-09-22T01:34:26.471Z,96.32
2017-09-22T01:35:26.451Z,96.7
2017-09-22T01:36:26.428Z,96.32
2017-09-22T01:37:26.407Z,96.8
2017-09-22T01:38:26.384Z,97.27
2017-09-22T01:39:26.357Z,96.98
2017-09-22T01:40:26.343Z,96.98
2017-09-22T01:41:26.315Z,97.27
2017-09-22T01:42:26.288Z,97.46
2017-09-22T01:43:26.267Z,97.27
2017-09-22T01:44:26.252Z,97.27
2017-09-22T01:45:26.218Z,97.36
2017-09-22T01:46:26.207Z,97.08
2017-09-22T01:47:26.177Z,97.17
2017-09-22T01:48:26.158Z,97.17
2017-09-22T01:49:26.131Z,97.08
2017-09-22T01:50:26.112Z,97.17
2017-09-22T01:51:26.084Z,96.89
2017-09-22T01:52:26.061Z,97.27
2017-09-22T01:53:26.047Z,96.89
2017-09-22T01:54:26.015Z,97.27
2017-09-22T01:55:25.992Z,97.27
2017-09-22T01:56:25.967Z,97.08
2017-09-22T01:57:25.953Z,97.46
2017-09-22T01:58:25.924Z,97.08
2017-09-22T01:59:25.593Z,96.98
2017-09-22T02:00:25.885Z,97.08
2017-09-22T02:01:25.860Z,97.17
2017-09-22T02:02:25.832Z,97.46
2017-09-22T02:03:25.814Z,97.27
2017-09-22T02:04:25.789Z,97.08
2017-09-22T02:05:25.762Z,97.46
2017-09-22T02:06:25.742Z,97.27
2017-09-22T02:07:25.719Z,97.65
2017-09-22T02:08:25.700Z,97.65
2017-09-22T02:09:25.673Z,97.65
2017-09-22T02:10:25.655Z,97.51
2017-09-22T02:11:25.629Z,97.36
2017-09-22T02:12:25.608Z,97.46
2017-09-22T02:13:25.595Z,97.56
2017-09-22T02:14:25.563Z,97.46
2017-09-22T02:15:25.537Z,97.36
2017-09-22T02:16:25.521Z,97.56
2017-09-22T02:17:25.490Z,97.46
2017-09-22T02:18:25.468Z,97.36
2017-09-22T02:19:25.444Z,97.7
2017-09-22T02:20:25.423Z,97.56
2017-09-22T02:21:25.404Z,97.56
2017-09-22T02:22:25.369Z,97.51
2017-09-22T02:23:25.356Z,97.41
2017-09-22T02:24:25.336Z,97.65
2017-09-22T02:25:25.309Z,97.6
2017-09-22T02:26:25.281Z,97.41
2017-09-22T02:27:25.258Z,97.7
2017-09-22T02:28:25.238Z,97.31
2017-09-22T02:29:25.213Z,97.7
2017-09-22T02:30:25.191Z,97.7
2017-09-22T02:31:25.173Z,97.17
2017-09-22T02:32:25.149Z,97.31
2017-09-22T02:33:25.127Z,97.51
2017-09-22T02:34:25.105Z,97.31
2017-09-22T02:35:25.081Z,97.51
2017-09-22T02:36:25.060Z,97.51
2017-09-22T02:37:25.031Z,97.79
2017-09-22T02:38:25.010Z,97.99
2017-09-22T02:39:24.985Z,97.79
2017-09-22T02:40:24.965Z,97.99
2017-09-22T02:41:24.941Z,97.6
2017-09-22T02:42:24.917Z,97.79
2017-09-22T02:43:24.585Z,97.79
2017-09-22T02:44:24.883Z,97.99
2017-09-22T02:45:24.846Z,97.99
2017-09-22T02:46:24.513Z,97.99
2017-09-22T02:47:24.803Z,97.79
2017-09-22T02:48:24.781Z,97.89
2017-09-22T02:49:24.755Z,97.89
2017-09-22T02:50:24.785Z,97.99
2017-09-22T02:51:24.716Z,97.7
2017-09-22T02:52:24.684Z,97.7
2017-09-22T02:53:24.668Z,97.7
2017-09-22T02:54:24.640Z,97.99
2017-09-22T02:55:24.619Z,97.79
2017-09-22T02:56:24.594Z,97.7
2017-09-22T02:57:24.575Z,97.7
2017-09-22T02:58:24.548Z,97.89
2017-09-22T02:59:24.524Z,97.7
2017-09-22T03:00:24.510Z,97.89
2017-09-22T03:01:24.480Z,98.18
2017-09-22T03:02:24.471Z,97.7
2017-09-22T03:03:24.433Z,97.79
2017-09-22T03:04:24.408Z,97.6
2017-09-22T03:05:24.385Z,97.79
2017-09-22T03:06:24.367Z,98.27
2017-09-22T03:07:24.344Z,98.18
2017-09-22T03:08:24.317Z,98.36
2017-09-22T03:09:24.294Z,98.36
2017-09-22T03:10:24.295Z,98.18
2017-09-22T03:11:24.247Z,98.27
2017-09-22T03:12:24.223Z,98.27
2017-09-22T03:13:23.894Z,98.36
2017-09-22T03:14:24.186Z,97.89
2017-09-22T03:15:24.157Z,98.18
2017-09-22T03:16:24.137Z,98.27
2017-09-22T03:17:24.110Z,98.27
2017-09-22T03:18:24.087Z,98.36
2017-09-22T03:19:24.070Z,98.36
2017-09-22T03:20:24.040Z,98.36
2017-09-22T03:21:24.020Z,98.36
2017-09-22T03:22:23.997Z,98.18
2017-09-22T03:23:23.977Z,98.46
2017-09-22T03:24:23.950Z,98.46
2017-09-22T03:25:23.921Z,98.18
2017-09-22T03:26:38.512Z,98.55
2017-09-22T03:27:23.928Z,98.36
2017-09-22T03:28:23.857Z,98.18
2017-09-22T03:29:23.830Z,98.46
2017-09-22T03:30:23.815Z,98.08
2017-09-22T03:31:23.788Z,98.27
2017-09-22T03:32:23.760Z,98.46
2017-09-22T03:33:23.736Z,98.18
2017-09-22T03:34:23.718Z,98.18
2017-09-22T03:35:23.383Z,98.46
2017-09-22T03:36:23.671Z,98.18
2017-09-22T03:37:23.698Z,98.18
2017-09-22T03:38:23.637Z,98.08
2017-09-22T03:39:23.604Z,98.18
2017-09-22T03:40:23.585Z,98.18
2017-09-22T03:41:23.563Z,98.18
2017-09-22T03:42:23.536Z,98.18
2017-09-22T03:43:23.512Z,98.46
2017-09-22T03:44:23.490Z,98.18
2017-09-22T03:45:23.498Z,98.46
2017-09-22T03:46:23.137Z,97.89
2017-09-22T03:47:23.451Z,98.18
2017-09-22T03:48:23.397Z,98.27
2017-09-22T03:49:23.374Z,97.89
2017-09-22T03:50:23.350Z,98.46
2017-09-22T03:51:23.329Z,98.27
2017-09-22T03:52:22.995Z,98.36
2017-09-22T03:53:23.281Z,98.27
2017-09-22T03:54:23.264Z,98.36
2017-09-22T03:55:23.238Z,98.36
2017-09-22T03:56:23.211Z,98.46
2017-09-22T03:57:23.186Z,97.99
2017-09-22T03:58:23.170Z,97.99
2017-09-22T03:59:23.148Z,97.99
2017-09-22T04:00:23.124Z,98.27
2017-09-22T04:01:23.099Z,98.08
2017-09-22T04:02:23.078Z,98.36
2017-09-22T04:03:23.050Z,98.27
2017-09-22T04:04:23.028Z,97.99
2017-09-22T04:05:22.696Z,98.18
2017-09-22T04:06:22.979Z,98.36
2017-09-22T04:07:22.960Z,98.36
2017-09-22T04:08:22.940Z,98.08
2017-09-22T04:09:22.909Z,98.08
2017-09-22T04:10:22.888Z,98.27
2017-09-22T04:11:22.867Z,98.18
2017-09-22T04:12:22.842Z,98.08
2017-09-22T04:13:22.825Z,98.27
2017-09-22T04:14:22.801Z,98.18
2017-09-22T04:15:22.772Z,98.18
2017-09-22T04:16:22.751Z,98.18
2017-09-22T04:17:22.736Z,98.08
2017-09-22T04:18:22.703Z,98.18
2017-09-22T04:19:22.681Z,98.27
2017-09-22T04:20:22.657Z,97.99
2017-09-22T04:21:22.630Z,97.84
2017-09-22T04:22:22.616Z,97.6
2017-09-22T04:23:22.592Z,97.79
2017-09-22T04:24:22.574Z,98.08
2017-09-22T04:25:22.542Z,97.99
2017-09-22T04:26:22.526Z,98.08
2017-09-22T04:27:22.497Z,98.27
2017-09-22T04:28:22.527Z,98.22
2017-09-22T04:29:22.451Z,98.27
2017-09-22T04:30:22.438Z,97.99
2017-09-22T04:31:22.405Z,98.08
2017-09-22T04:32:22.389Z,97.99
2017-09-22T04:33:22.367Z,97.79
2017-09-22T04:34:22.338Z,97.99
2017-09-22T04:35:22.316Z,97.89
2017-09-22T04:36:22.289Z,98.18
2017-09-22T04:37:22.273Z,97.93
2017-09-22T04:38:22.248Z,97.89
2017-09-22T04:39:22.225Z,97.89
2017-09-22T04:40:22.198Z,98.08
2017-09-22T04:41:22.179Z,98.94
2017-09-22T04:42:22.151Z,98.94
2017-09-22T04:43:22.133Z,98.41
2017-09-22T04:44:22.104Z,99.03
2017-09-22T04:45:22.086Z,98.08
2017-09-22T04:46:22.062Z,98.08
2017-09-22T04:47:22.061Z,99.03
2017-09-22T04:48:22.018Z,98.69
2017-09-22T04:49:21.991Z,99.03
2017-09-22T04:50:21.972Z,98.74
2017-09-22T04:51:21.952Z,98.74
2017-09-22T04:52:21.923Z,98.84
2017-09-22T04:53:21.897Z,98.74
2017-09-22T04:54:21.874Z,98.41
2017-09-22T04:55:21.899Z,98.5
2017-09-22T04:56:21.830Z,98.69
2017-09-22T04:57:21.804Z,98.41
2017-09-22T04:58:21.782Z,98.5
2017-09-22T04:59:21.763Z,98.69
2017-09-22T05:00:21.734Z,98.5
2017-09-22T05:01:21.713Z,98.69
2017-09-22T05:02:21.381Z,98.6
2017-09-22T05:03:21.668Z,98.88
2017-09-22T05:04:21.644Z,98.6
2017-09-22T05:05:21.620Z,98.69
2017-09-22T05:06:21.290Z,98.41
2017-09-22T05:07:21.577Z,98.41
2017-09-22T05:08:21.554Z,98.5
2017-09-22T05:09:21.529Z,98.13
2017-09-22T05:10:21.505Z,98.6
2017-09-22T05:11:21.480Z,98.6
2017-09-22T05:12:21.160Z,98.5
2017-09-22T05:13:21.438Z,98.69
2017-09-22T05:14:21.420Z,98.6
2017-09-22T05:15:21.391Z,98.6
2017-09-22T05:16:21.366Z,98.69
2017-09-22T05:17:21.346Z,98.6
2017-09-22T05:18:21.335Z,98.22
2017-09-22T05:19:21.304Z,98.69
2017-09-22T05:20:21.280Z,98.5
2017-09-22T05:21:21.253Z,98.5
2017-09-22T05:22:21.231Z,98.5
2017-09-22T05:23:21.218Z,98.32
2017-09-22T05:24:21.190Z,98.5
2017-09-22T05:25:21.163Z,98.88
2017-09-22T05:26:20.859Z,98.5
2017-09-22T05:27:21.120Z,98.5
2017-09-22T05:28:21.095Z,98.6
2017-09-22T05:29:21.064Z,98.27
2017-09-22T05:30:21.043Z,98.46
2017-09-22T05:31:21.020Z,98.18
2017-09-22T05:32:20.997Z,98.55
2017-09-22T05:33:21.000Z,98.46
2017-09-22T05:34:20.952Z,98.74
2017-09-22T05:35:20.929Z,98.55
2017-09-22T05:36:20.906Z,98.55
2017-09-22T05:37:20.880Z,98.74
2017-09-22T05:38:20.860Z,98.74
2017-09-22T05:39:20.842Z,98.74
2017-09-22T05:40:20.814Z,98.55
2017-09-22T05:41:20.787Z,99.03
2017-09-22T05:42:20.772Z,99.03
2017-09-22T05:43:20.750Z,98.74
2017-09-22T05:44:20.726Z,98.74
2017-09-22T05:45:20.695Z,98.55
2017-09-22T05:46:20.676Z,97.99
2017-09-22T05:47:20.646Z,97.99
2017-09-22T05:48:20.627Z,97.99
2017-09-22T05:49:20.606Z,98.18
2017-09-22T05:50:20.584Z,97.56
2017-09-22T05:51:20.559Z,98.03
2017-09-22T05:52:20.540Z,98.22
2017-09-22T05:53:20.515Z,98.22
2017-09-22T05:54:20.490Z,98.22
2017-09-22T05:55:20.471Z,98.41
2017-09-22T05:56:20.447Z,98.22
2017-09-22T05:57:20.433Z,98.41
2017-09-22T05:58:20.401Z,97.84
2017-09-22T05:59:20.380Z,97.46
2017-09-22T06:00:20.045Z,97.84
2017-09-22T06:01:20.332Z,97.65
2017-09-22T06:02:20.307Z,97.84
2017-09-22T06:03:20.287Z,97.84
2017-09-22T06:04:20.265Z,97.51
2017-09-22T06:05:20.294Z,97.56
2017-09-22T06:06:20.214Z,97.41
2017-09-22T06:07:20.190Z,97.51
2017-09-22T06:08:20.172Z,97.7
2017-09-22T06:09:20.150Z,97.22
2017-09-22T06:10:20.130Z,97.61
2017-09-22T06:11:19.803Z,97.22
2017-09-22T06:12:20.088Z,97.03
2017-09-22T06:13:19.757Z,97.13
2017-09-22T06:14:20.037Z,97.22
2017-09-22T06:15:20.016Z,97.51
2017-09-22T06:16:19.997Z,97.41
2017-09-22T06:17:19.974Z,97.51
2017-09-22T06:18:19.947Z,96.41
2017-09-22T06:19:19.938Z,97.08
2017-09-22T06:20:19.593Z,96.89
2017-09-22T06:21:19.879Z,96.51
2017-09-22T06:22:19.856Z,96.75
2017-09-22T06:23:19.837Z,96.75
2017-09-22T06:24:19.815Z,96.22
2017-09-22T06:25:19.791Z,96.32
2017-09-22T06:26:19.511Z,95.89
2017-09-22T06:27:19.748Z,96.08
2017-09-22T06:28:19.736Z,95.79
2017-09-22T06:29:19.704Z,95.94
2017-09-22T06:30:19.682Z,95.75
2017-09-22T06:31:19.659Z,95.27
2017-09-22T06:32:19.638Z,95.51
2017-09-22T06:33:19.645Z,95.22
2017-09-22T06:34:19.597Z,95.61
2017-09-22T06:35:19.579Z,95.17
2017-09-22T06:36:19.565Z,95.07
2017-09-22T06:37:19.535Z,94.98
2017-09-22T06:38:19.514Z,94.6
2017-09-22T06:39:19.492Z,94.41
2017-09-22T06:40:19.470Z,93.88
2017-09-22T06:41:19.459Z,94.26
2017-09-22T06:42:19.432Z,93.74
2017-09-22T06:43:19.416Z,93.16
2017-09-22T06:44:19.390Z,93.35
2017-09-22T06:45:19.390Z,93.11
2017-09-22T06:46:19.358Z,92.63
2017-09-22T06:47:19.330Z,93.02
2017-09-22T06:48:19.310Z,91.86
2017-09-22T06:49:19.289Z,91.82
2017-09-22T06:50:19.267Z,91.24
2017-09-22T06:51:19.251Z,91.43
2017-09-22T06:52:19.229Z,90.67
2017-09-22T06:53:19.208Z,90.47
2017-09-22T06:54:19.195Z,89.85
2017-09-22T06:55:19.175Z,90.33
2017-09-22T06:56:19.148Z,89.85
2017-09-22T06:57:19.129Z,89.22
2017-09-22T06:58:19.118Z,88.84
2017-09-22T06:59:19.103Z,88.65
2017-09-22T07:00:19.074Z,88.07
2017-09-22T07:01:19.053Z,87.54
2017-09-22T07:02:19.035Z,87.15
2017-09-22T07:03:19.019Z,87.63
2017-09-22T07:04:18.997Z,86.96
2017-09-22T07:05:19.197Z,86.58
2017-09-22T07:06:18.964Z,86.19
2017-09-22T07:07:18.949Z,85.33
2017-09-22T07:08:18.923Z,85.38
2017-09-22T07:09:18.919Z,85.19
2017-09-22T07:10:18.893Z,85
2017-09-22T07:11:18.865Z,85.1
2017-09-22T07:12:18.851Z,85.1
2017-09-22T07:13:18.828Z,84.95
2017-09-22T07:14:18.810Z,84.37
2017-09-22T07:15:18.796Z,84.37
2017-09-22T07:16:18.774Z,83.89
2017-09-22T07:17:18.755Z,83.64
2017-09-22T07:18:18.735Z,83.11
2017-09-22T07:19:18.724Z,82.38
2017-09-22T07:20:18.701Z,81.99
2017-09-22T07:21:18.674Z,81.07
2017-09-22T07:22:18.666Z,80.79
2017-09-22T07:23:18.645Z,80.21
2017-09-22T07:24:18.637Z,79.92
2017-09-22T07:25:18.300Z,79.82
2017-09-22T07:26:18.588Z,77.65
2017-09-22T07:27:18.575Z,77.17
2017-09-22T07:28:18.557Z,76.01
2017-09-22T07:29:18.544Z,76.11
2017-09-22T07:30:18.527Z,74.38
2017-09-22T07:31:18.504Z,73.65
2017-09-22T07:32:18.489Z,73.07
2017-09-22T07:33:18.471Z,71.81
2017-09-22T07:34:18.449Z,71.91
2017-09-22T07:35:18.435Z,71.91
2017-09-22T07:36:18.424Z,71.24
2017-09-22T07:37:18.458Z,70.47
2017-09-22T07:38:18.385Z,69.06
2017-09-22T07:39:18.366Z,68
2017-09-22T07:40:18.353Z,67.81
2017-09-22T07:41:18.337Z,67.71
2017-09-22T07:42:18.319Z,66.88
2017-09-22T07:43:18.306Z,65.14
2017-09-22T07:44:18.298Z,63.34
2017-09-22T07:45:18.265Z,62.6
2017-09-22T07:46:18.257Z,61.19
2017-09-22T07:47:18.244Z,59.64
2017-09-22T07:48:18.217Z,58.32
2017-09-22T07:49:18.207Z,56.77
2017-09-22T07:50:17.891Z,55.83
2017-09-22T07:51:18.186Z,55.83
2017-09-22T07:52:18.161Z,55.65
2017-09-22T07:53:18.145Z,54.87
2017-09-22T07:54:18.125Z,53.64
2017-09-22T07:55:18.123Z,53.74
2017-09-22T07:56:18.105Z,52.8
2017-09-22T07:57:18.088Z,52.22
2017-09-22T07:58:18.083Z,51.44
2017-09-22T07:59:18.059Z,50.7
2017-09-22T08:00:18.054Z,50.31
2017-09-22T08:01:18.038Z,49.24
2017-09-22T08:02:18.018Z,49.44
2017-09-22T08:03:17.997Z,48.95
2017-09-22T08:04:17.688Z,49.17
2017-09-22T08:05:17.982Z,48.59
2017-09-22T08:06:17.967Z,48.22
2017-09-22T08:07:17.996Z,47.45
2017-09-22T08:08:17.938Z,47.64
2017-09-22T08:09:17.931Z,47.16
2017-09-22T08:10:17.914Z,46.87
2017-09-22T08:11:17.934Z,46.7
2017-09-22T08:12:17.892Z,46.41
2017-09-22T08:13:17.575Z,46.14
2017-09-22T08:14:17.565Z,45.47
2017-09-22T08:15:17.851Z,45.75
2017-09-22T08:16:17.841Z,45.07
2017-09-22T08:17:17.836Z,44.42
2017-09-22T08:18:17.816Z,43.74
2017-09-22T08:19:17.803Z,43.74
2017-09-22T08:20:17.795Z,43.74
2017-09-22T08:21:17.783Z,43.84
2017-09-22T08:22:17.470Z,43.54
2017-09-22T08:23:17.761Z,42.96
2017-09-22T08:24:17.756Z,43.26
2017-09-22T08:25:17.741Z,43.27
2017-09-22T08:26:17.420Z,42.69
2017-09-22T08:27:17.713Z,42.69
2017-09-22T08:28:17.708Z,42.02
2017-09-22T08:29:17.697Z,41.72
2017-09-22T08:30:17.692Z,40.95
2017-09-22T08:31:17.671Z,40.66
2017-09-22T08:32:17.659Z,41.14
2017-09-22T08:33:17.343Z,41.31
2017-09-22T08:34:17.329Z,42.17
2017-09-22T08:35:17.626Z,42.65
2017-09-22T08:36:17.611Z,42.85
2017-09-22T08:37:17.603Z,42.17
2017-09-22T08:38:17.813Z,42.63
2017-09-22T08:39:17.585Z,43.21
2017-09-22T08:40:17.571Z,43.09
2017-09-22T08:41:17.561Z,43.29
2017-09-22T08:42:17.548Z,43.75
2017-09-22T08:43:17.537Z,44.7
2017-09-22T08:44:17.526Z,45.08
2017-09-22T08:45:17.510Z,45.66
2017-09-22T08:46:17.500Z,45.47
2017-09-22T08:47:17.489Z,45.95
2017-09-22T08:48:17.530Z,45.28
2017-09-22T08:49:17.461Z,45.01
2017-09-22T08:50:17.447Z,44.81
2017-09-22T08:51:17.435Z,45.01
2017-09-22T08:52:17.421Z,44.35
2017-09-22T08:53:17.411Z,44.13
2017-09-22T08:54:17.407Z,43.65
2017-09-22T08:55:17.383Z,44.12
2017-09-22T08:56:17.385Z,44.98
2017-09-22T08:57:17.363Z,45.57
2017-09-22T08:58:17.354Z,45.76
2017-09-22T08:59:17.349Z,45.57
2017-09-22T09:00:17.334Z,45.86
2017-09-22T09:01:17.310Z,45.86
2017-09-22T09:02:17.301Z,45.86
2017-09-22T09:03:17.295Z,45.66
2017-09-22T09:04:17.275Z,46.34
2017-09-22T09:05:17.272Z,46.34
2017-09-22T09:06:17.251Z,46.53
2017-09-22T09:07:17.281Z,47.38
2017-09-22T09:08:17.226Z,47.58
2017-09-22T09:09:17.255Z,47.58
2017-09-22T09:10:17.197Z,47.86
2017-09-22T09:11:17.186Z,47.96
2017-09-22T09:12:17.172Z,47.69
2017-09-22T09:13:17.158Z,46.92
2017-09-22T09:14:17.149Z,46.26
2017-09-22T09:15:17.136Z,45.51
2017-09-22T09:16:17.129Z,45.61
2017-09-22T09:17:17.108Z,45.71
2017-09-22T09:18:17.098Z,45.42
2017-09-22T09:19:17.083Z,45.32
2017-09-22T09:20:17.070Z,45.42
2017-09-22T09:21:17.056Z,45.51
2017-09-22T09:22:17.047Z,45.22
2017-09-22T09:23:17.036Z,45.13
2017-09-22T09:24:16.714Z,45.42
2017-09-22T09:25:17.009Z,45.32
2017-09-22T09:26:17.015Z,45.13
2017-09-22T09:27:16.985Z,45.42
2017-09-22T09:28:16.970Z,45.13
2017-09-22T09:29:16.958Z,45.3
2017-09-22T09:30:16.951Z,45.68
2017-09-22T09:31:16.938Z,45.4
2017-09-22T09:32:16.923Z,45.32
2017-09-22T09:33:16.954Z,45.03
2017-09-22T09:34:16.898Z,45.32
2017-09-22T09:35:16.890Z,45.32
2017-09-22T09:36:16.883Z,45.61
2017-09-22T09:37:16.860Z,45.78
2017-09-22T09:38:16.847Z,46.08
2017-09-22T09:39:16.830Z,46.17
2017-09-22T09:40:16.823Z,46.36
2017-09-22T09:41:16.814Z,45.9
2017-09-22T09:42:16.799Z,45.2
2017-09-22T09:43:16.785Z,45.49
2017-09-22T09:44:16.769Z,45.78
2017-09-22T09:45:16.760Z,45.95
2017-09-22T09:46:16.748Z,46.05
2017-09-22T09:47:16.732Z,46.15
2017-09-22T09:48:16.722Z,46.53
2017-09-22T09:49:16.706Z,47.09
2017-09-22T09:50:16.695Z,47.28
2017-09-22T09:51:16.681Z,47.86
2017-09-22T09:52:16.668Z,48.16
2017-09-22T09:53:16.691Z,48.16
2017-09-22T09:54:16.642Z,48.54
2017-09-22T09:55:16.375Z,48.71
2017-09-22T09:56:16.653Z,48.81
2017-09-22T09:57:16.617Z,49.46
2017-09-22T09:58:16.590Z,50.01
2017-09-22T09:59:16.577Z,50.96
2017-09-22T10:00:16.557Z,51.05
2017-09-22T10:01:16.239Z,52.57
2017-09-22T10:02:16.786Z,53.22
2017-09-22T10:03:16.516Z,54.93
2017-09-22T10:04:16.503Z,55.51
2017-09-22T10:05:16.490Z,56.54
2017-09-22T10:06:16.475Z,57.5
2017-09-22T10:07:16.466Z,57.5
2017-09-22T10:08:16.444Z,58.65
2017-09-22T10:09:16.426Z,59.2
2017-09-22T10:10:16.413Z,60.07
2017-09-22T10:11:16.397Z,60.27
2017-09-22T10:12:16.380Z,60.55
2017-09-22T10:13:16.370Z,61
2017-09-22T10:14:16.345Z,61.42
2017-09-22T10:15:16.326Z,61.97
2017-09-22T10:16:16.315Z,63.12
2017-09-22T10:17:16.300Z,63.79
2017-09-22T10:18:16.279Z,64.66
2017-09-22T10:19:16.267Z,65.43
2017-09-22T10:20:16.243Z,66.01
2017-09-22T10:21:16.223Z,65.91
2017-09-22T10:22:16.204Z,66.3
2017-09-22T10:23:16.185Z,66.68
2017-09-22T10:24:16.174Z,66.42
2017-09-22T10:25:16.159Z,67.1
2017-09-22T10:26:16.132Z,66.62
2017-09-22T10:27:16.116Z,66.52
2017-09-22T10:28:16.101Z,67.1
2017-09-22T10:29:16.081Z,67.35
2017-09-22T10:30:16.066Z,67.65
2017-09-22T10:31:16.044Z,68.13
2017-09-22T10:32:16.032Z,68.03
2017-09-22T10:33:16.008Z,67.83
2017-09-22T10:34:15.993Z,67.83
2017-09-22T10:35:15.981Z,67.93
2017-09-22T10:36:15.953Z,67.93
2017-09-22T10:37:15.937Z,68.32
2017-09-22T10:38:15.920Z,68.32
2017-09-22T10:39:15.903Z,68.22
2017-09-22T10:40:15.888Z,68.41
2017-09-22T10:41:15.864Z,68.7
2017-09-22T10:42:15.845Z,69.67
2017-09-22T10:43:15.828Z,69.28
2017-09-22T10:44:15.816Z,69.67
2017-09-22T10:45:15.792Z,69.38
2017-09-22T10:46:15.774Z,69.51
2017-09-22T10:47:15.755Z,69.51
2017-09-22T10:48:15.739Z,68.84
2017-09-22T10:49:15.724Z,68.44
2017-09-22T10:50:15.739Z,69.09
2017-09-22T10:51:15.692Z,67.93
2017-09-22T10:52:15.672Z,68.22
2017-09-22T10:53:15.646Z,68.13
2017-09-22T10:54:15.629Z,68.22
2017-09-22T10:55:15.621Z,68.51
2017-09-22T10:56:15.588Z,69.34
2017-09-22T10:57:15.578Z,69.28
2017-09-22T10:58:15.556Z,69.28
2017-09-22T10:59:15.533Z,69.28
2017-09-22T11:00:15.516Z,69.85
2017-09-22T11:01:15.499Z,69.47
2017-09-22T11:02:15.485Z,69.95
2017-09-22T11:03:15.456Z,69.57
2017-09-22T11:04:15.445Z,69.47
2017-09-22T11:05:15.424Z,69.38
2017-09-22T11:06:15.402Z,69.57
2017-09-22T11:07:15.437Z,69.28
2017-09-22T11:08:15.372Z,69.47
2017-09-22T11:09:15.355Z,69.47
2017-09-22T11:10:15.029Z,69.28
2017-09-22T11:11:15.311Z,69.18
2017-09-22T11:12:15.291Z,70.05
2017-09-22T11:13:15.274Z,69.67
2017-09-22T11:14:15.259Z,70.05
2017-09-22T11:15:15.250Z,69.28
2017-09-22T11:16:15.223Z,69.57
2017-09-22T11:17:15.199Z,69.38
2017-09-22T11:18:15.203Z,69.95
2017-09-22T11:19:15.169Z,69.47
2017-09-22T11:20:15.151Z,69.18
2017-09-22T11:21:15.123Z,68.32
2017-09-22T11:22:15.110Z,68.51
2017-09-22T11:23:14.780Z,68.22
2017-09-22T11:24:15.075Z,68.7
2017-09-22T11:25:15.066Z,68.22
2017-09-22T11:26:15.044Z,68.99
2017-09-22T11:27:15.035Z,68.99
2017-09-22T11:28:15.002Z,68.8
2017-09-22T11:29:15.027Z,68.99
2017-09-22T11:30:14.983Z,69.28
2017-09-22T11:31:14.653Z,69.38
2017-09-22T11:32:14.939Z,69.85
2017-09-22T11:33:14.933Z,69.85
2017-09-22T11:34:14.660Z,69.76
2017-09-22T11:35:14.861Z,70.24
2017-09-22T11:36:14.844Z,69.95
2017-09-22T11:37:14.825Z,70.24
2017-09-22T11:38:14.824Z,70.34
2017-09-22T11:39:14.797Z,70.15
2017-09-22T11:40:14.775Z,71.2
2017-09-22T11:41:14.765Z,70.92
2017-09-22T11:42:14.741Z,70.92
2017-09-22T11:43:14.723Z,71.11
2017-09-22T11:44:14.699Z,70.09
2017-09-22T11:45:14.683Z,70.18
2017-09-22T11:46:14.666Z,70.86
2017-09-22T11:47:14.647Z,70.76
2017-09-22T11:48:14.651Z,71.24
2017-09-22T11:49:14.617Z,71.24
2017-09-22T11:50:14.593Z,71.14
2017-09-22T11:51:14.623Z,71.43
2017-09-22T11:52:14.554Z,71.91
2017-09-22T11:53:14.222Z,72.14
2017-09-22T11:54:14.212Z,71.76
2017-09-22T11:55:14.551Z,72.05
2017-09-22T11:56:14.481Z,72.05
2017-09-22T11:57:14.464Z,71.76
2017-09-22T11:58:14.443Z,71.76
2017-09-22T11:59:14.436Z,71.66
2017-09-22T12:00:14.457Z,71.76
2017-09-22T12:01:14.442Z,71.85
2017-09-22T12:02:14.371Z,71.76
2017-09-22T12:03:14.354Z,72.53
2017-09-22T12:04:14.388Z,72.53
2017-09-22T12:05:14.327Z,72.33
2017-09-22T12:06:14.300Z,72.33
2017-09-22T12:07:14.290Z,72.43
2017-09-22T12:08:14.277Z,72.53
2017-09-22T12:09:14.258Z,72.81
2017-09-22T12:10:14.235Z,72.63
2017-09-22T12:11:14.211Z,73.01
2017-09-22T12:12:14.201Z,73.1
2017-09-22T12:13:14.176Z,72.72
2017-09-22T12:14:14.162Z,72.88
2017-09-22T12:15:14.138Z,72.97
2017-09-22T12:16:14.179Z,73.07
2017-09-22T12:17:14.157Z,73.26
2017-09-22T12:18:14.089Z,73.16
2017-09-22T12:19:14.075Z,73.36
2017-09-22T12:20:14.064Z,72.78
2017-09-22T12:21:14.033Z,72.68
2017-09-22T12:22:14.013Z,72.88
2017-09-22T12:23:13.993Z,72.68
2017-09-22T12:24:13.980Z,72.72
2017-09-22T12:25:13.966Z,72.91
2017-09-22T12:26:13.950Z,72.24
2017-09-22T12:27:13.926Z,72.3
2017-09-22T12:28:13.601Z,72.53
2017-09-22T12:29:13.585Z,71.76
2017-09-22T12:30:13.876Z,72.43
2017-09-22T12:31:13.857Z,72.39
2017-09-22T12:32:13.838Z,72.3
2017-09-22T12:33:13.819Z,72.91
2017-09-22T12:34:13.803Z,72.91
2017-09-22T12:35:13.794Z,72.72
2017-09-22T12:36:13.764Z,72.63
2017-09-22T12:37:13.755Z,71.76
2017-09-22T12:38:13.728Z,71.56
2017-09-22T12:39:13.711Z,71.37
2017-09-22T12:40:13.705Z,71.37
2017-09-22T12:41:13.689Z,71.28
2017-09-22T12:42:13.707Z,70.89
2017-09-22T12:43:13.646Z,71.18
2017-09-22T12:44:13.622Z,70.79
2017-09-22T12:45:13.622Z,70.02
2017-09-22T12:46:13.584Z,70.21
2017-09-22T12:47:13.576Z,70.5
2017-09-22T12:48:13.557Z,70.7
2017-09-22T12:49:13.538Z,70.5
2017-09-22T12:50:13.518Z,70.21
2017-09-22T12:51:13.505Z,70.21
2017-09-22T12:52:13.496Z,70.21
2017-09-22T12:53:13.465Z,70.21
2017-09-22T12:54:13.453Z,70.12
2017-09-22T12:55:13.427Z,69.64